createdAt,value
2023-05-13T00:01:19.225Z,12.62
2023-05-13T00:03:45.835Z,12.64
2023-05-13T00:06:12.473Z,12.63
2023-05-13T00:08:39.078Z,12.63
2023-05-13T00:11:05.819Z,12.55
2023-05-13T00:13:32.378Z,12.52
2023-05-13T00:15:58.974Z,12.49
2023-05-13T00:18:25.617Z,12.46
2023-05-13T00:20:52.262Z,12.42
2023-05-13T00:23:18.814Z,12.41
2023-05-13T00:25:45.374Z,12.42
2023-05-13T00:28:11.947Z,12.36
2023-05-13T00:30:38.519Z,12.32
2023-05-13T00:33:05.098Z,12.29
2023-05-13T00:35:31.670Z,12.29
2023-05-13T00:37:58.220Z,12.26
2023-05-13T00:40:24.880Z,12.27
2023-05-13T00:42:51.554Z,12.21
2023-05-13T00:45:18.236Z,12.22
2023-05-13T00:47:44.765Z,12.26
2023-05-13T00:50:11.395Z,12.26
2023-05-13T00:52:38.908Z,12.25
2023-05-13T00:55:05.913Z,12.18
2023-05-13T00:57:32.785Z,12.13
2023-05-13T00:59:59.441Z,12.15
2023-05-13T01:02:39.604Z,12.16
2023-05-13T01:05:27.417Z,12.13
2023-05-13T01:08:11.874Z,12.06
2023-05-13T01:10:44.888Z,12.04
2023-05-13T01:13:16.273Z,12.01
2023-05-13T01:15:49.399Z,12.02
2023-05-13T01:18:25.241Z,11.97
2023-05-13T01:20:51.833Z,12.02
2023-05-13T01:23:18.394Z,12.06
2023-05-13T01:25:44.901Z,11.96
2023-05-13T01:28:11.436Z,11.87
2023-05-13T01:30:38.020Z,11.80
2023-05-13T01:33:04.582Z,11.77
2023-05-13T01:35:31.495Z,11.77
2023-05-13T01:37:58.111Z,11.75
2023-05-13T01:40:32.412Z,11.69
2023-05-13T01:42:59.630Z,11.60
2023-05-13T01:45:28.817Z,11.52
2023-05-13T01:47:55.402Z,11.46
2023-05-13T01:50:22.248Z,11.48
2023-05-13T01:52:49.005Z,11.42
2023-05-13T01:55:15.631Z,11.37
2023-05-13T01:57:42.176Z,11.37
2023-05-13T02:00:09.178Z,11.32
2023-05-13T02:02:35.860Z,11.38
2023-05-13T02:05:02.447Z,11.37
2023-05-13T02:07:28.981Z,11.35
2023-05-13T02:09:55.530Z,11.36
2023-05-13T02:12:22.096Z,11.32
2023-05-13T02:14:48.701Z,11.25
2023-05-13T02:17:15.244Z,11.25
2023-05-13T02:19:41.964Z,11.19
2023-05-13T02:22:08.583Z,11.22
2023-05-13T02:24:35.146Z,11.15
2023-05-13T02:27:01.669Z,11.09
2023-05-13T02:29:36.883Z,11.04
2023-05-13T02:32:03.582Z,10.99
2023-05-13T02:34:30.157Z,10.98
2023-05-13T02:36:56.681Z,10.94
2023-05-13T02:39:23.195Z,10.95
2023-05-13T02:41:49.762Z,10.97
2023-05-13T02:44:16.269Z,10.98
2023-05-13T02:46:42.856Z,10.98
2023-05-13T02:49:09.490Z,10.93
2023-05-13T02:51:36.082Z,10.87
2023-05-13T02:54:02.660Z,10.83
2023-05-13T02:56:29.214Z,10.84
2023-05-13T02:58:55.786Z,10.80
2023-05-13T03:01:22.383Z,10.81
2023-05-13T03:03:48.957Z,10.81
2023-05-13T03:06:15.540Z,10.77
2023-05-13T03:08:42.070Z,10.80
2023-05-13T03:11:08.601Z,10.78
2023-05-13T03:13:35.193Z,10.78
2023-05-13T03:16:01.758Z,10.79
2023-05-13T03:18:28.355Z,10.78
2023-05-13T03:20:54.946Z,10.72
2023-05-13T03:23:21.482Z,10.63
2023-05-13T03:25:48.012Z,10.61
2023-05-13T03:28:14.554Z,10.64
2023-05-13T03:30:41.066Z,10.61
2023-05-13T03:33:07.638Z,10.64
2023-05-13T03:35:34.159Z,10.60
2023-05-13T03:38:00.719Z,10.56
2023-05-13T03:40:27.284Z,10.50
2023-05-13T03:42:53.860Z,10.48
2023-05-13T03:45:20.403Z,10.55
2023-05-13T03:47:47.017Z,10.61
2023-05-13T03:50:13.711Z,10.68
2023-05-13T03:52:40.249Z,10.67
2023-05-13T03:55:07.039Z,10.73
2023-05-13T03:57:33.595Z,10.79
2023-05-13T04:00:00.154Z,10.86
2023-05-13T04:02:26.775Z,10.83
2023-05-13T04:04:53.432Z,10.89
2023-05-13T04:07:19.970Z,10.88
2023-05-13T04:09:46.553Z,10.93
2023-05-13T04:12:13.050Z,10.96
2023-05-13T04:14:39.580Z,10.92
2023-05-13T04:17:06.243Z,10.93
2023-05-13T04:19:32.879Z,10.96
2023-05-13T04:21:59.475Z,10.98
2023-05-13T04:24:26.021Z,11.08
2023-05-13T04:26:52.571Z,11.12
2023-05-13T04:29:19.140Z,11.12
2023-05-13T04:31:45.738Z,11.12
2023-05-13T04:34:12.304Z,11.05
2023-05-13T04:36:38.832Z,10.94
2023-05-13T04:39:05.425Z,11.08
2023-05-13T04:41:31.933Z,11.11
2023-05-13T04:43:58.561Z,11.21
2023-05-13T04:46:25.147Z,11.24
2023-05-13T04:48:51.810Z,11.28
2023-05-13T04:51:18.982Z,11.33
2023-05-13T04:53:45.896Z,11.35
2023-05-13T04:56:12.474Z,11.34
2023-05-13T04:58:39.017Z,11.40
2023-05-13T05:01:05.698Z,11.41
2023-05-13T05:03:32.331Z,11.41
2023-05-13T05:05:58.989Z,11.42
2023-05-13T05:08:25.533Z,11.43
2023-05-13T05:10:52.055Z,11.51
2023-05-13T05:13:18.667Z,11.59
2023-05-13T05:15:45.276Z,11.58
2023-05-13T05:18:11.868Z,11.58
2023-05-13T05:20:38.571Z,11.64
2023-05-13T05:23:05.170Z,11.67
2023-05-13T05:25:31.723Z,11.71
2023-05-13T05:27:58.325Z,11.74
2023-05-13T05:30:25.006Z,11.78
2023-05-13T05:32:51.710Z,11.86
2023-05-13T05:35:18.393Z,11.92
2023-05-13T05:37:45.051Z,11.97
2023-05-13T05:40:12.023Z,12.05
2023-05-13T05:42:38.570Z,12.07
2023-05-13T05:45:05.449Z,12.15
2023-05-13T05:47:32.041Z,12.22
2023-05-13T05:49:58.632Z,12.36
2023-05-13T05:52:25.206Z,12.42
2023-05-13T05:54:51.777Z,12.43
2023-05-13T05:57:18.760Z,12.44
2023-05-13T05:59:45.330Z,12.49
2023-05-13T06:02:11.994Z,12.52
2023-05-13T06:04:38.741Z,12.52
2023-05-13T06:07:05.580Z,12.60
2023-05-13T06:09:32.187Z,12.64
2023-05-13T06:11:58.777Z,12.69
2023-05-13T06:14:25.358Z,12.75
2023-05-13T06:16:53.524Z,12.81
2023-05-13T06:19:20.843Z,12.83
2023-05-13T06:21:47.367Z,12.89
2023-05-13T06:24:14.005Z,12.94
2023-05-13T06:26:40.547Z,13.07
2023-05-13T06:29:07.156Z,13.12
2023-05-13T06:31:33.695Z,13.17
2023-05-13T06:34:00.315Z,13.24
2023-05-13T06:36:26.851Z,13.43
2023-05-13T06:38:53.615Z,13.46
2023-05-13T06:41:20.074Z,13.57
2023-05-13T06:43:46.690Z,13.64
2023-05-13T06:46:13.238Z,13.68
2023-05-13T06:48:39.752Z,13.71
2023-05-13T06:51:06.305Z,13.78
2023-05-13T06:53:32.834Z,13.84
2023-05-13T06:55:59.402Z,13.97
2023-05-13T06:58:26.000Z,14.02
2023-05-13T07:00:52.543Z,14.07
2023-05-13T07:03:19.183Z,14.17
2023-05-13T07:05:45.812Z,14.24
2023-05-13T07:08:12.348Z,14.39
2023-05-13T07:10:38.897Z,14.47
2023-05-13T07:13:06.372Z,14.51
2023-05-13T07:15:32.976Z,14.54
2023-05-13T07:17:59.513Z,14.62
2023-05-13T07:20:26.155Z,14.70
2023-05-13T07:22:52.675Z,14.77
2023-05-13T07:25:19.244Z,14.92
2023-05-13T07:27:45.862Z,15.01
2023-05-13T07:30:12.710Z,15.11
2023-05-13T07:32:39.599Z,15.14
2023-05-13T07:35:06.777Z,15.16
2023-05-13T07:37:33.312Z,15.23
2023-05-13T07:39:59.855Z,15.29
2023-05-13T07:42:26.396Z,15.43
2023-05-13T07:44:52.958Z,15.53
2023-05-13T07:47:19.661Z,15.57
2023-05-13T07:49:46.414Z,15.64
2023-05-13T07:52:13.038Z,15.77
2023-05-13T07:54:39.634Z,15.88
2023-05-13T07:57:06.424Z,15.98
2023-05-13T07:59:32.999Z,16.11
2023-05-13T08:01:59.544Z,16.23
2023-05-13T08:04:26.215Z,16.34
2023-05-13T08:06:52.910Z,16.43
2023-05-13T08:09:19.548Z,16.51
2023-05-13T08:11:46.068Z,16.61
2023-05-13T08:14:12.614Z,16.69
2023-05-13T08:16:39.220Z,16.84
2023-05-13T08:19:05.912Z,16.91
2023-05-13T08:21:32.545Z,17.03
2023-05-13T08:23:59.161Z,17.15
2023-05-13T08:26:25.755Z,17.31
2023-05-13T08:28:54.755Z,17.42
2023-05-13T08:31:21.856Z,17.56
2023-05-13T08:33:48.433Z,17.69
2023-05-13T08:36:15.042Z,17.81
2023-05-13T08:38:41.558Z,17.99
2023-05-13T08:41:08.107Z,18.06
2023-05-13T08:43:34.668Z,18.19
2023-05-13T08:46:03.160Z,18.36
2023-05-13T08:48:30.059Z,18.54
2023-05-13T08:50:56.910Z,18.67
2023-05-13T08:53:23.655Z,18.85
2023-05-13T08:55:50.294Z,19.08
2023-05-13T08:58:16.845Z,19.25
2023-05-13T09:00:43.415Z,19.40
2023-05-13T09:03:10.022Z,19.61
2023-05-13T09:05:38.831Z,19.75
2023-05-13T09:08:07.744Z,19.86
2023-05-13T09:10:34.374Z,20.05
2023-05-13T09:13:00.898Z,20.22
2023-05-13T09:15:27.644Z,20.38
2023-05-13T09:18:00.331Z,20.64
2023-05-13T09:20:27.091Z,20.79
2023-05-13T09:22:58.857Z,20.86
2023-05-13T09:25:25.566Z,20.99
2023-05-13T09:27:53.655Z,21.08
2023-05-13T09:30:20.691Z,21.16
2023-05-13T09:33:12.604Z,21.41
2023-05-13T09:35:48.692Z,21.57
2023-05-13T09:38:22.414Z,21.73
2023-05-13T09:40:52.401Z,21.86
2023-05-13T09:43:23.393Z,21.95
2023-05-13T09:45:56.619Z,22.00
2023-05-13T09:48:25.332Z,22.10
2023-05-13T09:50:51.884Z,22.19
2023-05-13T09:53:18.602Z,22.14
2023-05-13T09:55:48.673Z,22.03
2023-05-13T09:58:15.242Z,21.94
2023-05-13T10:00:42.289Z,21.82
2023-05-13T10:03:09.724Z,21.79
2023-05-13T10:05:36.332Z,21.84
2023-05-13T10:08:03.097Z,21.87
2023-05-13T10:10:30.760Z,22.00
2023-05-13T10:12:59.923Z,22.09
2023-05-13T10:15:26.661Z,22.24
2023-05-13T10:17:53.255Z,22.24
2023-05-13T10:20:20.021Z,22.31
2023-05-13T10:22:46.831Z,22.38
2023-05-13T10:25:13.336Z,22.46
2023-05-13T10:27:39.920Z,22.47
2023-05-13T10:30:06.999Z,22.59
2023-05-13T10:32:33.589Z,22.73
2023-05-13T10:35:06.683Z,22.87
2023-05-13T10:37:43.618Z,22.94
2023-05-13T10:40:22.821Z,23.14
2023-05-13T10:43:39.297Z,23.27
2023-05-13T10:46:11.923Z,23.34
2023-05-13T10:48:42.640Z,23.29
2023-05-13T10:51:10.074Z,23.36
2023-05-13T10:53:43.099Z,23.48
2023-05-13T10:56:09.646Z,23.58
2023-05-13T10:58:36.247Z,23.65
2023-05-13T11:01:19.503Z,23.60
2023-05-13T11:03:53.650Z,23.67
2023-05-13T11:06:24.665Z,23.67
2023-05-13T11:08:53.083Z,23.65
2023-05-13T11:11:21.669Z,23.63
2023-05-13T11:14:00.151Z,23.74
2023-05-13T11:16:26.682Z,23.80
2023-05-13T11:18:53.285Z,23.89
2023-05-13T11:21:33.158Z,24.03
2023-05-13T11:24:04.894Z,24.08
2023-05-13T11:26:49.606Z,24.17
2023-05-13T11:29:34.788Z,24.37
2023-05-13T11:32:02.674Z,24.61
2023-05-13T11:34:29.333Z,24.71
2023-05-13T11:37:04.968Z,24.69
2023-05-13T11:39:32.854Z,24.52
2023-05-13T11:41:59.429Z,24.62
2023-05-13T11:44:26.015Z,24.77
2023-05-13T11:46:56.279Z,25.00
2023-05-13T11:49:45.083Z,25.22
2023-05-13T11:52:12.918Z,25.44
2023-05-13T11:54:50.151Z,25.55
2023-05-13T11:57:22.347Z,25.62
2023-05-13T12:00:02.568Z,25.61
2023-05-13T12:02:29.974Z,25.68
2023-05-13T12:04:59.994Z,25.77
2023-05-13T12:07:26.622Z,25.75
2023-05-13T12:09:54.273Z,25.82
2023-05-13T12:12:20.837Z,26.00
2023-05-13T12:14:47.711Z,26.15
2023-05-13T12:17:14.210Z,26.29
2023-05-13T12:19:41.028Z,25.75
2023-05-13T12:22:08.145Z,25.58
2023-05-13T12:24:34.633Z,25.42
2023-05-13T12:27:08.626Z,25.30
2023-05-13T12:29:43.265Z,25.26
2023-05-13T12:32:09.990Z,25.11
2023-05-13T12:34:36.533Z,24.70
2023-05-13T12:37:12.656Z,24.18
2023-05-13T12:39:42.284Z,23.56
2023-05-13T12:42:18.133Z,22.96
2023-05-13T12:44:44.876Z,22.54
2023-05-13T12:47:11.580Z,22.14
2023-05-13T12:49:57.780Z,21.93
2023-05-13T12:52:24.363Z,21.88
2023-05-13T12:54:50.915Z,22.21
2023-05-13T12:57:17.790Z,22.87
2023-05-13T12:59:44.761Z,23.47
2023-05-13T13:02:11.728Z,23.89
2023-05-13T13:04:38.314Z,24.32
2023-05-13T13:07:05.270Z,24.58
2023-05-13T13:09:31.887Z,24.89
2023-05-13T13:11:58.468Z,25.10
2023-05-13T13:14:25.021Z,25.24
2023-05-13T13:16:51.579Z,25.17
2023-05-13T13:19:18.188Z,24.59
2023-05-13T13:21:44.786Z,23.93
2023-05-13T13:24:11.328Z,23.42
2023-05-13T13:26:37.879Z,23.63
2023-05-13T13:29:04.442Z,23.48
2023-05-13T13:31:30.994Z,23.02
2023-05-13T13:33:57.565Z,22.66
2023-05-13T13:36:24.082Z,22.51
2023-05-13T13:38:50.645Z,22.77
2023-05-13T13:41:17.168Z,23.20
2023-05-13T13:43:43.678Z,23.68
2023-05-13T13:46:10.273Z,24.20
2023-05-13T13:48:36.814Z,24.74
2023-05-13T13:51:03.394Z,25.13
2023-05-13T13:53:29.954Z,25.48
2023-05-13T13:55:56.486Z,25.73
2023-05-13T13:58:23.002Z,25.88
2023-05-13T14:00:49.569Z,26.09
2023-05-13T14:03:16.240Z,26.45
2023-05-13T14:05:42.818Z,26.47
2023-05-13T14:08:09.384Z,26.24
2023-05-13T14:10:35.926Z,26.17
2023-05-13T14:13:02.444Z,25.83
2023-05-13T14:15:29.000Z,25.09
2023-05-13T14:17:55.638Z,24.27
2023-05-13T14:20:22.705Z,23.55
2023-05-13T14:22:49.520Z,23.02
2023-05-13T14:25:16.164Z,22.77
2023-05-13T14:27:42.701Z,23.19
2023-05-13T14:30:09.548Z,23.72
2023-05-13T14:32:36.094Z,24.18
2023-05-13T14:35:02.723Z,24.47
2023-05-13T14:37:29.303Z,24.14
2023-05-13T14:39:55.988Z,23.68
2023-05-13T14:42:22.556Z,23.25
2023-05-13T14:44:49.150Z,23.00
2023-05-13T14:47:15.676Z,23.11
2023-05-13T14:49:42.227Z,23.02
2023-05-13T14:52:08.760Z,22.94
2023-05-13T14:54:35.286Z,22.86
2023-05-13T14:57:02.991Z,22.73
2023-05-13T14:59:29.527Z,22.60
2023-05-13T15:01:56.162Z,22.48
2023-05-13T15:04:23.516Z,22.40
2023-05-13T15:06:50.029Z,22.34
2023-05-13T15:09:16.577Z,22.31
2023-05-13T15:11:43.126Z,22.16
2023-05-13T15:14:09.914Z,22.12
2023-05-13T15:16:36.515Z,22.11
2023-05-13T15:19:03.200Z,22.11
2023-05-13T15:21:29.811Z,22.10
2023-05-13T15:23:56.360Z,21.99
2023-05-13T15:26:22.944Z,21.82
2023-05-13T15:28:49.496Z,21.58
2023-05-13T15:31:16.139Z,21.32
2023-05-13T15:33:45.028Z,21.25
2023-05-13T15:36:11.775Z,21.29
2023-05-13T15:38:38.843Z,21.35
2023-05-13T15:41:05.428Z,21.43
2023-05-13T15:43:32.129Z,21.55
2023-05-13T15:45:58.866Z,21.88
2023-05-13T15:48:25.436Z,21.97
2023-05-13T15:50:52.035Z,22.06
2023-05-13T15:53:18.613Z,22.43
2023-05-13T15:55:45.132Z,22.67
2023-05-13T15:58:11.688Z,22.38
2023-05-13T16:00:38.224Z,22.32
2023-05-13T16:03:04.798Z,22.44
2023-05-13T16:05:31.388Z,22.35
2023-05-13T16:07:57.948Z,22.27
2023-05-13T16:10:24.802Z,22.09
2023-05-13T16:12:51.593Z,21.90
2023-05-13T16:15:18.208Z,21.79
2023-05-13T16:17:44.768Z,21.67
2023-05-13T16:20:19.737Z,21.46
2023-05-13T16:22:46.376Z,21.27
2023-05-13T16:25:12.933Z,21.14
2023-05-13T16:27:39.828Z,20.99
2023-05-13T16:30:07.148Z,20.91
2023-05-13T16:32:33.778Z,20.88
2023-05-13T16:35:00.510Z,20.89
2023-05-13T16:37:27.425Z,20.93
2023-05-13T16:39:53.979Z,20.90
2023-05-13T16:42:20.525Z,20.97
2023-05-13T16:44:47.312Z,21.10
2023-05-13T16:47:13.980Z,21.13
2023-05-13T16:49:40.584Z,21.08
2023-05-13T16:52:07.340Z,20.97
2023-05-13T16:54:34.010Z,20.86
2023-05-13T16:57:00.594Z,20.75
2023-05-13T16:59:27.590Z,20.66
2023-05-13T17:01:54.493Z,20.65
2023-05-13T17:04:21.112Z,20.63
2023-05-13T17:06:47.858Z,20.65
2023-05-13T17:09:14.415Z,20.62
2023-05-13T17:11:41.000Z,20.48
2023-05-13T17:14:07.558Z,20.54
2023-05-13T17:16:34.102Z,20.46
2023-05-13T17:19:00.708Z,20.36
2023-05-13T17:21:27.244Z,20.25
2023-05-13T17:23:53.744Z,20.19
2023-05-13T17:26:20.342Z,20.12
2023-05-13T17:28:46.888Z,20.05
2023-05-13T17:31:13.556Z,20.01
2023-05-13T17:33:40.119Z,20.02
2023-05-13T17:36:07.042Z,19.99
2023-05-13T17:38:33.608Z,19.97
2023-05-13T17:41:00.164Z,19.93
2023-05-13T17:43:26.755Z,19.88
2023-05-13T17:45:53.279Z,19.97
2023-05-13T17:48:19.894Z,19.98
2023-05-13T17:50:46.691Z,19.91
2023-05-13T17:53:13.249Z,19.86
2023-05-13T17:55:39.787Z,19.78
2023-05-13T17:58:06.333Z,19.74
2023-05-13T18:00:33.031Z,19.72
2023-05-13T18:02:59.680Z,19.69
2023-05-13T18:05:26.340Z,19.72
2023-05-13T18:07:52.992Z,19.61
2023-05-13T18:10:19.734Z,19.57
2023-05-13T18:12:46.436Z,19.56
2023-05-13T18:15:12.937Z,19.45
2023-05-13T18:17:39.707Z,19.53
2023-05-13T18:20:06.961Z,19.51
2023-05-13T18:22:33.531Z,19.41
2023-05-13T18:25:00.055Z,19.38
2023-05-13T18:27:26.615Z,19.30
2023-05-13T18:29:53.167Z,19.19
2023-05-13T18:32:19.689Z,19.11
2023-05-13T18:34:46.220Z,19.03
2023-05-13T18:37:12.767Z,18.94
2023-05-13T18:39:39.320Z,18.82
2023-05-13T18:42:06.150Z,18.73
2023-05-13T18:44:32.694Z,18.63
2023-05-13T18:46:59.221Z,18.62
2023-05-13T18:49:25.823Z,18.49
2023-05-13T18:51:52.391Z,18.44
2023-05-13T18:54:18.897Z,18.40
2023-05-13T18:56:45.472Z,18.28
2023-05-13T18:59:12.957Z,18.15
2023-05-13T19:01:39.563Z,18.06
2023-05-13T19:04:06.365Z,17.96
2023-05-13T19:06:35.064Z,17.86
2023-05-13T19:09:01.622Z,17.80
2023-05-13T19:11:28.160Z,17.82
2023-05-13T19:13:54.734Z,17.70
2023-05-13T19:16:21.409Z,17.63
2023-05-13T19:18:48.028Z,17.56
2023-05-13T19:21:14.643Z,17.47
2023-05-13T19:23:41.163Z,17.38
2023-05-13T19:26:07.750Z,17.29
2023-05-13T19:28:34.606Z,17.26
2023-05-13T19:31:01.172Z,17.18
2023-05-13T19:33:27.732Z,17.09
2023-05-13T19:35:54.286Z,17.13
2023-05-13T19:38:20.896Z,17.01
2023-05-13T19:40:47.415Z,16.97
2023-05-13T19:43:14.303Z,16.92
2023-05-13T19:45:40.805Z,16.88
2023-05-13T19:48:07.398Z,16.84
2023-05-13T19:50:34.001Z,16.75
2023-05-13T19:53:00.584Z,16.68
2023-05-13T19:55:27.080Z,16.65
2023-05-13T19:57:53.627Z,16.59
2023-05-13T20:00:20.182Z,16.60
2023-05-13T22:01:34.050Z,14.71
2023-05-13T22:04:00.605Z,14.69
2023-05-13T22:06:27.140Z,14.68
2023-05-13T22:08:53.731Z,14.66
2023-05-13T22:11:20.309Z,14.61
2023-05-13T22:13:46.865Z,14.57
2023-05-13T22:16:13.626Z,14.53
2023-05-13T22:18:41.104Z,14.51
2023-05-13T22:21:07.815Z,14.43
2023-05-13T22:23:34.335Z,14.36
2023-05-13T22:26:00.927Z,14.31
2023-05-13T22:28:27.496Z,14.28
2023-05-13T22:30:54.045Z,14.29
2023-05-13T22:33:20.600Z,14.28
2023-05-13T22:35:47.196Z,14.22
2023-05-13T22:38:13.743Z,14.16
2023-05-13T22:40:40.329Z,14.14
2023-05-13T22:43:06.860Z,14.08
2023-05-13T22:45:33.427Z,14.05
2023-05-13T22:48:00.063Z,13.97
2023-05-13T22:50:26.678Z,13.87
2023-05-13T22:52:53.298Z,13.83
2023-05-13T22:55:19.837Z,13.76
2023-05-13T22:57:46.405Z,13.78
2023-05-13T23:00:13.432Z,13.74
2023-05-13T23:02:40.088Z,13.79
2023-05-13T23:05:06.859Z,13.79
2023-05-13T23:07:33.427Z,13.81
2023-05-13T23:09:59.939Z,13.83
2023-05-13T23:12:26.536Z,13.83
2023-05-13T23:14:54.285Z,13.86
2023-05-13T23:17:20.902Z,13.85
2023-05-13T23:19:47.465Z,13.83
2023-05-13T23:22:14.019Z,13.88
2023-05-13T23:24:40.559Z,13.86
2023-05-13T23:27:07.129Z,13.82
2023-05-13T23:29:33.675Z,13.79
2023-05-13T23:32:00.283Z,13.79
2023-05-13T23:34:26.829Z,13.80
2023-05-13T23:36:53.405Z,13.78
2023-05-13T23:39:19.958Z,13.77
2023-05-13T23:41:46.555Z,13.71
2023-05-13T23:44:13.093Z,13.70
2023-05-13T23:46:39.625Z,13.66
2023-05-13T23:49:06.191Z,13.61
2023-05-13T23:51:32.730Z,13.58
2023-05-13T23:53:59.279Z,13.55
2023-05-13T23:56:25.850Z,13.51
2023-05-13T23:58:52.440Z,13.44
